Domingo — EA7822 — position and weather

sailwx.info

Track history (hours):
 
Tides and Currents Weather Stations Pressure Air Temp Water Temp Dewpoint Dewpoint Depression Visibility Wind Speed Wind Dir Waves Ship Positions

Domingo

Last reported at 2018-Jul-18 05:00 UTC. Time now 2018-Jul-18 05:03 UTC.
Position N 41°11' E 001°47'.

Length 25 m.

Type: Fishing. MMSI: 224023970.

Date/timePositionNaut miles runAvg speedWind from/ knotsBaromVisibWave heightAir tempDewpointWater temp
2018-Jul-18 05:00N 41°11' E 001°47'712.1
2018-Jul-18 04:24N 41°07' E 001°55'2 1.2
2018-Jul-18 02:58N 41°07' E 001°57'0 0.5
2018-Jul-18 02:06N 41°07' E 001°58'0 1.5
2018-Jul-18 01:47N 41°07' E 001°57'0 1.1
2018-Jul-18 01:27N 41°07' E 001°58'6 3.2
2018-Jul-17 23:45N 41°10' E 001°51'310.2
2018-Jul-17 23:30N 41°11' E 001°48'4 7.2
2018-Jul-17 22:58N 41°13' E 001°44'0 0.0
2018-Jul-17 22:30N 41°13' E 001°44'0 0.0
2018-Jul-17 22:00N 41°13' E 001°44'0 0.0
2018-Jul-17 21:30N 41°13' E 001°44'0 0.0
2018-Jul-17 21:00N 41°13' E 001°44'0 0.0
2018-Jul-17 20:30N 41°13' E 001°44'0 0.0
2018-Jul-17 20:00N 41°13' E 001°44'0 0.0
2018-Jul-17 19:30N 41°13' E 001°44'0 0.0
2018-Jul-17 19:00N 41°13' E 001°44'0 0.0
2018-Jul-17 18:30N 41°13' E 001°44'0 0.0
2018-Jul-17 18:00N 41°13' E 001°44'0 0.0
2018-Jul-17 17:30N 41°13' E 001°44'0 0.0
2018-Jul-17 17:00N 41°13' E 001°44'0 0.0
2018-Jul-17 16:30N 41°13' E 001°44'0 0.0
2018-Jul-17 16:00N 41°13' E 001°44'0 0.0
2018-Jul-17 15:30N 41°13' E 001°44'0 0.0
2018-Jul-17 15:00N 41°13' E 001°44'0 0.0
2018-Jul-17 14:30N 41°13' E 001°44'0 0.0
2018-Jul-17 14:00N 41°13' E 001°44'0 0.0
2018-Jul-17 13:30N 41°13' E 001°44'0 0.0
2018-Jul-17 13:00N 41°13' E 001°44'0 0.0
2018-Jul-17 12:30N 41°13' E 001°44'0 0.0
2018-Jul-17 12:00N 41°13' E 001°44'0 0.0
2018-Jul-17 11:30N 41°13' E 001°44'0 0.0
2018-Jul-17 11:00N 41°13' E 001°44'0 0.0
2018-Jul-17 10:30N 41°13' E 001°44'0 0.0
2018-Jul-17 10:00N 41°13' E 001°44'0 0.0
2018-Jul-17 09:30N 41°13' E 001°44'0 0.0
2018-Jul-17 09:00N 41°13' E 001°44'0 0.0
2018-Jul-17 08:30N 41°13' E 001°44'0 0.0
2018-Jul-17 06:08N 41°13' E 001°44'0 0.0
2018-Jul-17 06:00N 41°13' E 001°44'0 0.1
2018-Jul-17 05:30N 41°13' E 001°44'5 9.5
2018-Jul-17 05:00N 41°10' E 001°39'510.4
2018-Jul-17 04:30N 41°07' E 001°33'6 1.1
2018-Jul-16 23:03N 41°09' E 001°41'1 8.8
2018-Jul-16 22:59N 41°10' E 001°41'4 7.4
2018-Jul-16 22:29N 41°13' E 001°44'0 0.0
2018-Jul-16 22:00N 41°13' E 001°44'0 0.0
2018-Jul-16 21:30N 41°13' E 001°44'0 0.0
2018-Jul-16 21:00N 41°13' E 001°44'0 0.0
2018-Jul-16 20:30N 41°13' E 001°44'0 0.0
2018-Jul-16 20:00N 41°13' E 001°44'0 0.0
2018-Jul-16 19:30N 41°13' E 001°44'0 0.0
2018-Jul-16 19:00N 41°13' E 001°44'0 0.0
2018-Jul-16 18:30N 41°13' E 001°44'0 0.0
2018-Jul-16 18:00N 41°13' E 001°44'0 0.0
2018-Jul-16 17:30N 41°13' E 001°44'0 0.0
2018-Jul-16 17:00N 41°13' E 001°44'0 0.0
2018-Jul-16 16:28N 41°13' E 001°44'0 0.0
2018-Jul-16 16:00N 41°13' E 001°44'0 0.0
2018-Jul-16 15:30N 41°13' E 001°44'0 0.0
2018-Jul-16 15:00N 41°13' E 001°44'0 0.0
2018-Jul-16 14:30N 41°13' E 001°44'0 0.0
2018-Jul-16 13:59N 41°13' E 001°44'0 0.0
2018-Jul-16 13:28N 41°13' E 001°44'0 0.0
2018-Jul-16 13:00N 41°13' E 001°44'0 0.0
2018-Jul-16 12:30N 41°13' E 001°44'0 0.0
2018-Jul-16 12:00N 41°13' E 001°44'0 0.0
2018-Jul-16 11:30N 41°13' E 001°44'0 0.0
2018-Jul-16 10:59N 41°13' E 001°44'0 0.0
2018-Jul-16 10:31N 41°13' E 001°44'0 0.0
2018-Jul-16 09:59N 41°13' E 001°44'0 0.0
2018-Jul-16 09:30N 41°13' E 001°44'0 0.0
2018-Jul-16 09:00N 41°13' E 001°44'0 0.0
2018-Jul-16 08:30N 41°13' E 001°44'0 0.0
2018-Jul-16 08:00N 41°13' E 001°44'0 0.0
2018-Jul-16 07:30N 41°13' E 001°44'0 0.0
2018-Jul-16 07:00N 41°13' E 001°44'0 0.2
2018-Jul-16 06:30N 41°13' E 001°44'1 1.7
2018-Jul-16 06:00N 41°12' E 001°44'612.2
2018-Jul-16 05:30N 41°12' E 001°52'712.2
2018-Jul-16 04:58N 41°10' E 002°01'0 0.7
2018-Jul-16 04:30N 41°10' E 002°01'0 0.2
2018-Jul-16 03:50N 41°09' E 002°01'0 0.2
2018-Jul-16 02:29N 41°09' E 002°01'0 0.1
2018-Jul-16 02:00N 41°09' E 002°01'5 2.7
2018-Jul-15 23:59N 41°07' E 001°54'6 9.8
2018-Jul-15 23:25N 41°05' E 001°47'2 3.8
2018-Jul-15 22:53N 41°07' E 001°49'2 3.3
2018-Jul-15 22:23N 41°08' E 001°47'410.7
2018-Jul-15 22:00N 41°11' E 001°44'2 3.6
2018-Jul-15 21:30N 41°13' E 001°44'0 0.0
2018-Jul-15 21:00N 41°13' E 001°44'0 0.0
2018-Jul-15 20:30N 41°13' E 001°44'0 0.0
2018-Jul-15 20:00N 41°13' E 001°44'0 0.0
2018-Jul-15 19:30N 41°13' E 001°44'0 0.0
2018-Jul-15 19:00N 41°13' E 001°44'0 0.0
2018-Jul-15 18:30N 41°13' E 001°44'0 0.0
2018-Jul-15 18:00N 41°13' E 001°44'0 0.0
2018-Jul-15 17:30N 41°13' E 001°44'0 0.0
2018-Jul-15 17:00N 41°13' E 001°44'0 0.0
2018-Jul-15 16:30N 41°13' E 001°44'0 0.0
2018-Jul-15 16:00N 41°13' E 001°44'0 0.0
2018-Jul-15 15:30N 41°13' E 001°44'0 0.0
2018-Jul-15 15:00N 41°13' E 001°44'0 0.0
2018-Jul-15 14:30N 41°13' E 001°44'0 0.0
2018-Jul-15 14:00N 41°13' E 001°44'0 0.0
2018-Jul-15 13:30N 41°13' E 001°44'0 0.0
2018-Jul-15 13:00N 41°13' E 001°44'0 0.0
2018-Jul-15 12:30N 41°13' E 001°44'0 0.0
2018-Jul-15 12:00N 41°13' E 001°44'0 0.0
2018-Jul-15 11:30N 41°13' E 001°44'0 0.0
2018-Jul-15 11:00N 41°13' E 001°44'0 0.0
2018-Jul-15 10:30N 41°13' E 001°44'0 0.0
2018-Jul-15 09:59N 41°13' E 001°44'0 0.0
2018-Jul-15 09:29N 41°13' E 001°44'0 0.0
2018-Jul-15 09:00N 41°13' E 001°44'0 0.0
2018-Jul-15 08:30N 41°13' E 001°44'0 0.0
2018-Jul-15 08:00N 41°13' E 001°44'0 0.0
2018-Jul-15 07:30N 41°13' E 001°44'0 0.0
2018-Jul-15 07:00N 41°13' E 001°44'0 0.0
2018-Jul-15 06:30N 41°13' E 001°44'0 0.0
2018-Jul-15 06:00N 41°13' E 001°44'0 0.0
2018-Jul-15 05:30N 41°13' E 001°44'0 0.0
2018-Jul-15 05:00N 41°13' E 001°44'0 0.0
2018-Jul-15 04:30N 41°13' E 001°44'0 0.0
2018-Jul-15 03:59N 41°13' E 001°44'0 0.0
2018-Jul-15 03:30N 41°13' E 001°44'0 0.0
2018-Jul-15 03:00N 41°13' E 001°44'0 0.0
2018-Jul-15 02:30N 41°13' E 001°44'0 0.0
2018-Jul-15 02:00N 41°13' E 001°44'0 0.0
2018-Jul-15 01:30N 41°13' E 001°44'0 0.0
2018-Jul-15 01:00N 41°13' E 001°44'0 0.0
2018-Jul-15 00:30N 41°13' E 001°44'0 0.0
2018-Jul-15 00:00N 41°13' E 001°44'0 0.0
2018-Jul-14 23:30N 41°13' E 001°44'0 0.0
2018-Jul-14 23:00N 41°13' E 001°44'0 0.0
2018-Jul-14 22:30N 41°13' E 001°44'0 0.0
2018-Jul-14 22:00N 41°13' E 001°44'0 0.0
2018-Jul-14 21:30N 41°13' E 001°44'0 0.0
2018-Jul-14 21:00N 41°13' E 001°44'0 0.0
2018-Jul-14 20:30N 41°13' E 001°44'0 0.0
2018-Jul-14 20:00N 41°13' E 001°44'0 0.0
2018-Jul-14 19:30N 41°13' E 001°44'0 0.0
2018-Jul-14 19:00N 41°13' E 001°44'0 0.0
2018-Jul-14 18:30N 41°13' E 001°44'0 0.0
2018-Jul-14 18:00N 41°13' E 001°44'0 0.0
2018-Jul-14 17:30N 41°13' E 001°44'0 0.0
2018-Jul-14 17:00N 41°13' E 001°44'0 0.0
2018-Jul-14 16:30N 41°13' E 001°44'0 0.0
2018-Jul-14 16:00N 41°13' E 001°44'0 0.0
2018-Jul-14 15:30N 41°13' E 001°44'0 0.0
2018-Jul-14 15:00N 41°13' E 001°44'0 0.0
2018-Jul-14 14:30N 41°13' E 001°44'0 0.0
2018-Jul-14 13:30N 41°13' E 001°44'0 0.0
2018-Jul-14 13:00N 41°13' E 001°44'0 0.0
2018-Jul-14 12:30N 41°13' E 001°44'0 0.0
2018-Jul-14 12:00N 41°13' E 001°44'0 0.0
2018-Jul-14 11:30N 41°13' E 001°44'0 0.0
2018-Jul-14 11:00N 41°13' E 001°44'0 0.0
2018-Jul-14 10:29N 41°13' E 001°44'0 0.0
2018-Jul-14 10:00N 41°13' E 001°44'0 0.0
2018-Jul-14 09:30N 41°13' E 001°44'0 0.0
2018-Jul-14 09:00N 41°13' E 001°44'0 0.0
2018-Jul-14 08:30N 41°13' E 001°44'0 0.0
2018-Jul-14 08:00N 41°13' E 001°44'0 0.0
2018-Jul-14 07:30N 41°13' E 001°44'0 0.0
2018-Jul-14 07:00N 41°13' E 001°44'0 0.0
2018-Jul-14 06:30N 41°13' E 001°44'0 0.0
2018-Jul-14 06:00N 41°13' E 001°44'0 0.0
2018-Jul-14 05:30N 41°13' E 001°44'0 0.0
2018-Jul-14 05:00N 41°13' E 001°44'0 0.0
2018-Jul-14 04:30N 41°13' E 001°44'0 0.0
2018-Jul-14 04:00N 41°13' E 001°44'0 0.0
2018-Jul-14 03:30N 41°13' E 001°44'0 0.0
2018-Jul-14 03:00N 41°13' E 001°44'0 0.0
2018-Jul-14 02:30N 41°13' E 001°44'0 0.0
2018-Jul-14 02:00N 41°13' E 001°44'0 0.0
2018-Jul-14 01:30N 41°13' E 001°44'0 0.0
2018-Jul-14 00:59N 41°13' E 001°44'0 0.0
2018-Jul-14 00:30N 41°13' E 001°44'0 0.0
2018-Jul-14 00:00N 41°13' E 001°44'0 0.0
2018-Jul-13 23:30N 41°13' E 001°44'0 0.0
2018-Jul-13 23:00N 41°13' E 001°44'0 0.0
2018-Jul-13 22:30N 41°13' E 001°44'0 0.0
2018-Jul-13 22:00N 41°13' E 001°44'0 0.0
2018-Jul-13 21:30N 41°13' E 001°44'0 0.0
2018-Jul-13 21:00N 41°13' E 001°44'0 0.0
2018-Jul-13 20:30N 41°13' E 001°44'0 0.0
2018-Jul-13 19:59N 41°13' E 001°44'0 0.0
2018-Jul-13 19:30N 41°13' E 001°44'0 0.0
2018-Jul-13 19:00N 41°13' E 001°44'0 0.0
2018-Jul-13 18:27N 41°13' E 001°44'0 0.0
2018-Jul-13 18:00N 41°13' E 001°44'0 0.0
2018-Jul-13 17:30N 41°13' E 001°44'0 0.0
2018-Jul-13 17:00N 41°13' E 001°44'0 0.0
2018-Jul-13 16:30N 41°13' E 001°44'0 0.0
2018-Jul-13 15:59N 41°13' E 001°44'0 0.0
2018-Jul-13 15:30N 41°13' E 001°44'0 0.0
2018-Jul-13 15:00N 41°13' E 001°44'0 0.0
2018-Jul-13 14:00N 41°13' E 001°44'0 0.0
2018-Jul-13 13:30N 41°13' E 001°44'0 0.0
2018-Jul-13 13:00N 41°13' E 001°44'0 0.0
2018-Jul-13 12:30N 41°13' E 001°44'0 0.0
2018-Jul-13 12:00N 41°13' E 001°44'0 0.0
2018-Jul-13 11:30N 41°13' E 001°44'0 0.0
2018-Jul-13 11:00N 41°13' E 001°44'0 0.0
2018-Jul-13 10:30N 41°13' E 001°44'0 0.0
2018-Jul-13 10:00N 41°13' E 001°44'0 0.0
2018-Jul-13 09:30N 41°13' E 001°44'0 0.0
2018-Jul-13 09:00N 41°13' E 001°44'0 0.0
2018-Jul-13 08:30N 41°13' E 001°44'0 0.0
2018-Jul-13 08:00N 41°13' E 001°44'0 0.0
2018-Jul-13 07:30N 41°13' E 001°44'0 0.0
2018-Jul-13 07:00N 41°13' E 001°44'0 0.0
2018-Jul-13 06:30N 41°13' E 001°44'0 0.0
2018-Jul-13 06:00N 41°13' E 001°44'0 0.2
2018-Jul-13 05:30N 41°13' E 001°44'3 6.2
2018-Jul-13 05:00N 41°10' E 001°45'611.0
2018-Jul-13 04:30N 41°06' E 001°50'0 0.3
2018-Jul-13 04:00N 41°06' E 001°50'0 0.5
2018-Jul-13 03:28N 41°06' E 001°50'0 0.6
2018-Jul-13 03:00N 41°06' E 001°49'0 0.3
2018-Jul-13 02:30N 41°06' E 001°49'0 0.5
2018-Jul-13 01:59N 41°06' E 001°49'0 0.0
2018-Jul-12 23:52N 41°06' E 001°49'0 0.2
2018-Jul-12 23:17N 41°06' E 001°49'0 0.3
2018-Jul-12 22:59N 41°06' E 001°49'4 7.8
2018-Jul-12 22:30N 41°09' E 001°46'4 8.0
2018-Jul-12 22:00N 41°13' E 001°44'0 0.0
2018-Jul-12 21:30N 41°13' E 001°44'0 0.0
2018-Jul-12 21:00N 41°13' E 001°44'0 0.0
2018-Jul-12 20:30N 41°13' E 001°44'0 0.0
2018-Jul-12 20:00N 41°13' E 001°44'0 0.0
2018-Jul-12 19:30N 41°13' E 001°44'0 0.0
2018-Jul-12 19:00N 41°13' E 001°44'0 0.0
2018-Jul-12 18:30N 41°13' E 001°44'0 0.0
2018-Jul-12 18:00N 41°13' E 001°44'0 0.0
2018-Jul-12 17:30N 41°13' E 001°44'0 0.0
2018-Jul-12 16:59N 41°13' E 001°44'0 0.0
2018-Jul-12 16:30N 41°13' E 001°44'0 0.0
2018-Jul-12 16:00N 41°13' E 001°44'0 0.0
2018-Jul-12 15:30N 41°13' E 001°44'0 0.0
2018-Jul-12 15:00N 41°13' E 001°44'0 0.0
2018-Jul-12 14:30N 41°13' E 001°44'0 0.0
2018-Jul-12 14:00N 41°13' E 001°44'0 0.0
2018-Jul-12 13:30N 41°13' E 001°44'0 0.0
2018-Jul-12 13:00N 41°13' E 001°44'0 0.0
2018-Jul-12 12:30N 41°13' E 001°44'0 0.0
2018-Jul-12 12:00N 41°13' E 001°44'0 0.0
2018-Jul-12 11:28N 41°13' E 001°44'0 0.0
2018-Jul-12 11:00N 41°13' E 001°44'0 0.0
2018-Jul-12 10:30N 41°13' E 001°44'0 0.0
2018-Jul-12 10:00N 41°13' E 001°44'0 0.0
2018-Jul-12 09:30N 41°13' E 001°44'0 0.0
2018-Jul-12 09:00N 41°13' E 001°44'0 0.0
2018-Jul-12 08:30N 41°13' E 001°44'0 0.0
2018-Jul-12 08:00N 41°13' E 001°44'0 0.0
2018-Jul-12 07:30N 41°13' E 001°44'0 0.0
2018-Jul-12 07:00N 41°13' E 001°44'0 0.0
2018-Jul-12 06:30N 41°13' E 001°44'0 0.0
2018-Jul-12 06:00N 41°13' E 001°44'0 0.0
2018-Jul-12 05:30N 41°13' E 001°44'0 0.2
2018-Jul-12 05:00N 41°13' E 001°44'2 4.4
2018-Jul-12 04:30N 41°12' E 001°46'5 9.6
2018-Jul-12 04:00N 41°09' E 001°52'3 6.1
2018-Jul-12 03:29N 41°08' E 001°56'0 0.4
2018-Jul-12 02:49N 41°08' E 001°55'0 0.6
2018-Jul-12 02:30N 41°07' E 001°55'0 0.1
2018-Jul-12 01:38N 41°07' E 001°55'0 0.4
2018-Jul-12 01:24N 41°07' E 001°55'1 2.3
2018-Jul-12 00:50N 41°08' E 001°56'0 0.5
2018-Jul-12 00:30N 41°08' E 001°56'4 3.2
2018-Jul-11 23:13N 41°08' E 001°51'2 9.4
2018-Jul-11 23:00N 41°09' E 001°49'5 9.6
2018-Jul-11 22:30N 41°12' E 001°44'1 1.5
2018-Jul-11 22:00N 41°13' E 001°44'0 0.0
2018-Jul-11 21:30N 41°13' E 001°44'0 0.0
2018-Jul-11 21:00N 41°13' E 001°44'0 0.0
2018-Jul-11 20:30N 41°13' E 001°44'0 0.0
2018-Jul-11 20:00N 41°13' E 001°44'0 0.0
2018-Jul-11 19:30N 41°13' E 001°44'0 0.0
2018-Jul-11 19:00N 41°13' E 001°44'0 0.0
2018-Jul-11 18:30N 41°13' E 001°44'0 0.0
2018-Jul-11 18:00N 41°13' E 001°44'0 0.0
2018-Jul-11 17:30N 41°13' E 001°44'0 0.0
2018-Jul-11 16:59N 41°13' E 001°44'0 0.0
2018-Jul-11 16:30N 41°13' E 001°44'0 0.0
2018-Jul-11 16:00N 41°13' E 001°44'0 0.0
2018-Jul-11 15:30N 41°13' E 001°44'0 0.0
2018-Jul-11 15:00N 41°13' E 001°44'0 0.0
2018-Jul-11 14:30N 41°13' E 001°44'0 0.0
2018-Jul-11 14:00N 41°13' E 001°44'0 0.0
2018-Jul-11 13:30N 41°13' E 001°44'0 0.0
2018-Jul-11 13:00N 41°13' E 001°44'0 0.0
2018-Jul-11 12:30N 41°13' E 001°44'0 0.0
2018-Jul-11 12:00N 41°13' E 001°44'0 0.0
2018-Jul-11 11:30N 41°13' E 001°44'0 0.0
2018-Jul-11 11:00N 41°13' E 001°44'0 0.0
2018-Jul-11 10:30N 41°13' E 001°44'0 0.0
2018-Jul-11 10:00N 41°13' E 001°44'0 0.0
2018-Jul-11 09:30N 41°13' E 001°44'0 0.0
2018-Jul-11 09:00N 41°13' E 001°44'0 0.0
2018-Jul-11 08:30N 41°13' E 001°44'0 0.0
2018-Jul-11 08:00N 41°13' E 001°44'0 0.0
2018-Jul-11 07:30N 41°13' E 001°44'0 0.0
2018-Jul-11 07:00N 41°13' E 001°44'0 0.0
2018-Jul-11 06:30N 41°13' E 001°44'0 0.2
2018-Jul-11 06:00N 41°13' E 001°44'0 0.1
2018-Jul-11 05:30N 41°13' E 001°44'2 3.9
2018-Jul-11 05:00N 41°12' E 001°46'611.2
2018-Jul-11 04:30N 41°12' E 001°54'4 5.2
2018-Jul-11 03:48N 41°11' E 001°59'0 0.6
2018-Jul-11 03:29N 41°11' E 001°58'0 0.2
2018-Jul-11 02:52N 41°11' E 001°59'0 0.6
2018-Jul-11 02:22N 41°11' E 001°58'0 0.6
2018-Jul-11 02:00N 41°10' E 001°58'0 0.4
2018-Jul-11 01:28N 41°11' E 001°58'0 0.4
2018-Jul-11 00:57N 41°10' E 001°58'1 1.7
2018-Jul-11 00:30N 41°11' E 001°57'4 7.3
2018-Jul-10 23:56N 41°10' E 001°52'510.9
2018-Jul-10 23:30N 41°11' E 001°46'2 4.6
2018-Jul-10 23:00N 41°13' E 001°44'0 0.0
2018-Jul-10 22:30N 41°13' E 001°44'0 0.0
2018-Jul-10 22:00N 41°13' E 001°44'0 0.0
2018-Jul-10 21:30N 41°13' E 001°44'0 0.0
2018-Jul-10 21:00N 41°13' E 001°44'0 0.0
2018-Jul-10 20:30N 41°13' E 001°44'0 0.0
2018-Jul-10 20:00N 41°13' E 001°44'0 0.0
2018-Jul-10 19:30N 41°13' E 001°44'0 0.0
2018-Jul-10 18:58N 41°13' E 001°44'0 0.0
2018-Jul-10 18:30N 41°13' E 001°44'0 0.0
2018-Jul-10 18:00N 41°13' E 001°44'0 0.0
2018-Jul-10 17:30N 41°13' E 001°44'0 0.0
2018-Jul-10 17:00N 41°13' E 001°44'0 0.0
2018-Jul-10 16:30N 41°13' E 001°44'0 0.0
2018-Jul-10 16:00N 41°13' E 001°44'0 0.0
2018-Jul-10 15:30N 41°13' E 001°44'0 0.0
2018-Jul-10 15:00N 41°13' E 001°44'0 0.0
2018-Jul-10 14:30N 41°13' E 001°44'0 0.0
2018-Jul-10 14:00N 41°13' E 001°44'0 0.0
2018-Jul-10 13:30N 41°13' E 001°44'0 0.0
2018-Jul-10 13:00N 41°13' E 001°44'0 0.0
2018-Jul-10 12:28N 41°13' E 001°44'0 0.0
2018-Jul-10 12:00N 41°13' E 001°44'0 0.0
2018-Jul-10 11:30N 41°13' E 001°44'0 0.0
2018-Jul-10 11:00N 41°13' E 001°44'0 0.0
2018-Jul-10 10:30N 41°13' E 001°44'0 0.0
2018-Jul-10 10:00N 41°13' E 001°44'0 0.0
2018-Jul-10 09:30N 41°13' E 001°44'0 0.0
2018-Jul-10 09:00N 41°13' E 001°44'0 0.0
2018-Jul-10 08:30N 41°13' E 001°44'0 0.0
2018-Jul-10 08:00N 41°13' E 001°44'0 0.0
2018-Jul-10 07:30N 41°13' E 001°44'0 0.0
2018-Jul-10 07:00N 41°13' E 001°44'0 0.0
2018-Jul-10 06:30N 41°13' E 001°44'0 0.0
2018-Jul-10 06:00N 41°13' E 001°44'0 0.0
2018-Jul-10 05:30N 41°13' E 001°44'0 0.0
2018-Jul-10 05:00N 41°13' E 001°44'1 2.0
2018-Jul-10 04:30N 41°12' E 001°44'612.8
2018-Jul-10 04:00N 41°08' E 001°51'1 0.7
2018-Jul-10 03:16N 41°08' E 001°52'0 0.4
2018-Jul-10 02:56N 41°08' E 001°52'0 0.3
2018-Jul-10 02:08N 41°07' E 001°52'0 0.5
2018-Jul-10 02:00N 41°07' E 001°52'0 0.1
2018-Jul-10 01:25N 41°07' E 001°52'1 2.9
2018-Jul-10 00:58N 41°06' E 001°51'3 7.5
2018-Jul-10 00:30N 41°08' E 001°47'5 9.6
2018-Jul-10 00:00N 41°13' E 001°44'0 0.0
2018-Jul-09 06:51N 41°13' E 001°44'0 0.0
2018-Jul-09 06:30N 41°13' E 001°44'0 0.0
2018-Jul-09 06:00N 41°13' E 001°44'0 0.1
2018-Jul-09 05:30N 41°13' E 001°44'0 0.1
2018-Jul-09 05:00N 41°13' E 001°44'0 0.1
2018-Jul-09 04:30N 41°13' E 001°44'0 0.1
2018-Jul-09 04:00N 41°13' E 001°44'4 8.8
2018-Jul-09 03:30N 41°09' E 001°47'4 5.9
2018-Jul-09 02:55N 41°06' E 001°49'0 0.3
2018-Jul-09 02:30N 41°06' E 001°49'0 0.1
2018-Jul-09 01:46N 41°06' E 001°49'0 0.3
2018-Jul-09 01:13N 41°06' E 001°50'0 0.2
2018-Jul-09 00:56N 41°06' E 001°49'0 0.2
2018-Jul-09 00:21N 41°06' E 001°49'0 0.1
2018-Jul-08 23:09N 41°06' E 001°50'0 0.1
2018-Jul-08 22:33N 41°06' E 001°50'0 0.7
2018-Jul-08 22:19N 41°06' E 001°49'3 7.3
2018-Jul-08 21:57N 41°07' E 001°47'511.2
2018-Jul-08 21:30N 41°12' E 001°44'  
Track history (hours):
 
Tides and Currents Weather Stations Pressure Air Temp Water Temp Dewpoint Dewpoint Depression Visibility Wind Speed Wind Dir Waves Ship Positions

Domingo

Last reported at 2018-Jul-18 05:00 UTC. Time now 2018-Jul-18 05:03 UTC.
Position N 41°11' E 001°47'.

Length 25 m.

Type: Fishing. MMSI: 224023970.

Date/timePositionNaut miles runAvg speedWind from/ knotsBaromVisibWave heightAir tempDewpointWater temp
2018-Jul-18 05:00N 41°11' E 001°47'712.1
2018-Jul-18 04:24N 41°07' E 001°55'2 1.2
2018-Jul-18 02:58N 41°07' E 001°57'0 0.5
2018-Jul-18 02:06N 41°07' E 001°58'0 1.5
2018-Jul-18 01:47N 41°07' E 001°57'0 1.1
2018-Jul-18 01:27N 41°07' E 001°58'6 3.2
2018-Jul-17 23:45N 41°10' E 001°51'310.2
2018-Jul-17 23:30N 41°11' E 001°48'4 7.2
2018-Jul-17 22:58N 41°13' E 001°44'0 0.0
2018-Jul-17 22:30N 41°13' E 001°44'0 0.0
2018-Jul-17 22:00N 41°13' E 001°44'0 0.0
2018-Jul-17 21:30N 41°13' E 001°44'0 0.0
2018-Jul-17 21:00N 41°13' E 001°44'0 0.0
2018-Jul-17 20:30N 41°13' E 001°44'0 0.0
2018-Jul-17 20:00N 41°13' E 001°44'0 0.0
2018-Jul-17 19:30N 41°13' E 001°44'0 0.0
2018-Jul-17 19:00N 41°13' E 001°44'0 0.0
2018-Jul-17 18:30N 41°13' E 001°44'0 0.0
2018-Jul-17 18:00N 41°13' E 001°44'0 0.0
2018-Jul-17 17:30N 41°13' E 001°44'0 0.0
2018-Jul-17 17:00N 41°13' E 001°44'0 0.0
2018-Jul-17 16:30N 41°13' E 001°44'0 0.0
2018-Jul-17 16:00N 41°13' E 001°44'0 0.0
2018-Jul-17 15:30N 41°13' E 001°44'0 0.0
2018-Jul-17 15:00N 41°13' E 001°44'0 0.0
2018-Jul-17 14:30N 41°13' E 001°44'0 0.0
2018-Jul-17 14:00N 41°13' E 001°44'0 0.0
2018-Jul-17 13:30N 41°13' E 001°44'0 0.0
2018-Jul-17 13:00N 41°13' E 001°44'0 0.0
2018-Jul-17 12:30N 41°13' E 001°44'0 0.0
2018-Jul-17 12:00N 41°13' E 001°44'0 0.0
2018-Jul-17 11:30N 41°13' E 001°44'0 0.0
2018-Jul-17 11:00N 41°13' E 001°44'0 0.0
2018-Jul-17 10:30N 41°13' E 001°44'0 0.0
2018-Jul-17 10:00N 41°13' E 001°44'0 0.0
2018-Jul-17 09:30N 41°13' E 001°44'0 0.0
2018-Jul-17 09:00N 41°13' E 001°44'0 0.0
2018-Jul-17 08:30N 41°13' E 001°44'0 0.0
2018-Jul-17 06:08N 41°13' E 001°44'0 0.0
2018-Jul-17 06:00N 41°13' E 001°44'0 0.1
2018-Jul-17 05:30N 41°13' E 001°44'5 9.5
2018-Jul-17 05:00N 41°10' E 001°39'510.4
2018-Jul-17 04:30N 41°07' E 001°33'6 1.1
2018-Jul-16 23:03N 41°09' E 001°41'1 8.8
2018-Jul-16 22:59N 41°10' E 001°41'4 7.4
2018-Jul-16 22:29N 41°13' E 001°44'0 0.0
2018-Jul-16 22:00N 41°13' E 001°44'0 0.0
2018-Jul-16 21:30N 41°13' E 001°44'0 0.0
2018-Jul-16 21:00N 41°13' E 001°44'0 0.0
2018-Jul-16 20:30N 41°13' E 001°44'0 0.0
2018-Jul-16 20:00N 41°13' E 001°44'0 0.0
2018-Jul-16 19:30N 41°13' E 001°44'0 0.0
2018-Jul-16 19:00N 41°13' E 001°44'0 0.0
2018-Jul-16 18:30N 41°13' E 001°44'0 0.0
2018-Jul-16 18:00N 41°13' E 001°44'0 0.0
2018-Jul-16 17:30N 41°13' E 001°44'0 0.0
2018-Jul-16 17:00N 41°13' E 001°44'0 0.0
2018-Jul-16 16:28N 41°13' E 001°44'0 0.0
2018-Jul-16 16:00N 41°13' E 001°44'0 0.0
2018-Jul-16 15:30N 41°13' E 001°44'0 0.0
2018-Jul-16 15:00N 41°13' E 001°44'0 0.0
2018-Jul-16 14:30N 41°13' E 001°44'0 0.0
2018-Jul-16 13:59N 41°13' E 001°44'0 0.0
2018-Jul-16 13:28N 41°13' E 001°44'0 0.0
2018-Jul-16 13:00N 41°13' E 001°44'0 0.0
2018-Jul-16 12:30N 41°13' E 001°44'0 0.0
2018-Jul-16 12:00N 41°13' E 001°44'0 0.0
2018-Jul-16 11:30N 41°13' E 001°44'0 0.0
2018-Jul-16 10:59N 41°13' E 001°44'0 0.0
2018-Jul-16 10:31N 41°13' E 001°44'0 0.0
2018-Jul-16 09:59N 41°13' E 001°44'0 0.0
2018-Jul-16 09:30N 41°13' E 001°44'0 0.0
2018-Jul-16 09:00N 41°13' E 001°44'0 0.0
2018-Jul-16 08:30N 41°13' E 001°44'0 0.0
2018-Jul-16 08:00N 41°13' E 001°44'0 0.0
2018-Jul-16 07:30N 41°13' E 001°44'0 0.0
2018-Jul-16 07:00N 41°13' E 001°44'0 0.2
2018-Jul-16 06:30N 41°13' E 001°44'1 1.7
2018-Jul-16 06:00N 41°12' E 001°44'612.2
2018-Jul-16 05:30N 41°12' E 001°52'712.2
2018-Jul-16 04:58N 41°10' E 002°01'0 0.7
2018-Jul-16 04:30N 41°10' E 002°01'0 0.2
2018-Jul-16 03:50N 41°09' E 002°01'0 0.2
2018-Jul-16 02:29N 41°09' E 002°01'0 0.1
2018-Jul-16 02:00N 41°09' E 002°01'5 2.7
2018-Jul-15 23:59N 41°07' E 001°54'6 9.8
2018-Jul-15 23:25N 41°05' E 001°47'2 3.8
2018-Jul-15 22:53N 41°07' E 001°49'2 3.3
2018-Jul-15 22:23N 41°08' E 001°47'410.7
2018-Jul-15 22:00N 41°11' E 001°44'2 3.6
2018-Jul-15 21:30N 41°13' E 001°44'0 0.0
2018-Jul-15 21:00N 41°13' E 001°44'0 0.0
2018-Jul-15 20:30N 41°13' E 001°44'0 0.0
2018-Jul-15 20:00N 41°13' E 001°44'0 0.0
2018-Jul-15 19:30N 41°13' E 001°44'0 0.0
2018-Jul-15 19:00N 41°13' E 001°44'0 0.0
2018-Jul-15 18:30N 41°13' E 001°44'0 0.0
2018-Jul-15 18:00N 41°13' E 001°44'0 0.0
2018-Jul-15 17:30N 41°13' E 001°44'0 0.0
2018-Jul-15 17:00N 41°13' E 001°44'0 0.0
2018-Jul-15 16:30N 41°13' E 001°44'0 0.0
2018-Jul-15 16:00N 41°13' E 001°44'0 0.0
2018-Jul-15 15:30N 41°13' E 001°44'0 0.0
2018-Jul-15 15:00N 41°13' E 001°44'0 0.0
2018-Jul-15 14:30N 41°13' E 001°44'0 0.0
2018-Jul-15 14:00N 41°13' E 001°44'0 0.0
2018-Jul-15 13:30N 41°13' E 001°44'0 0.0
2018-Jul-15 13:00N 41°13' E 001°44'0 0.0
2018-Jul-15 12:30N 41°13' E 001°44'0 0.0
2018-Jul-15 12:00N 41°13' E 001°44'0 0.0
2018-Jul-15 11:30N 41°13' E 001°44'0 0.0
2018-Jul-15 11:00N 41°13' E 001°44'0 0.0
2018-Jul-15 10:30N 41°13' E 001°44'0 0.0
2018-Jul-15 09:59N 41°13' E 001°44'0 0.0
2018-Jul-15 09:29N 41°13' E 001°44'0 0.0
2018-Jul-15 09:00N 41°13' E 001°44'0 0.0
2018-Jul-15 08:30N 41°13' E 001°44'0 0.0
2018-Jul-15 08:00N 41°13' E 001°44'0 0.0
2018-Jul-15 07:30N 41°13' E 001°44'0 0.0
2018-Jul-15 07:00N 41°13' E 001°44'0 0.0
2018-Jul-15 06:30N 41°13' E 001°44'0 0.0
2018-Jul-15 06:00N 41°13' E 001°44'0 0.0
2018-Jul-15 05:30N 41°13' E 001°44'0 0.0
2018-Jul-15 05:00N 41°13' E 001°44'0 0.0
2018-Jul-15 04:30N 41°13' E 001°44'0 0.0
2018-Jul-15 03:59N 41°13' E 001°44'0 0.0
2018-Jul-15 03:30N 41°13' E 001°44'0 0.0
2018-Jul-15 03:00N 41°13' E 001°44'0 0.0
2018-Jul-15 02:30N 41°13' E 001°44'0 0.0
2018-Jul-15 02:00N 41°13' E 001°44'0 0.0
2018-Jul-15 01:30N 41°13' E 001°44'0 0.0
2018-Jul-15 01:00N 41°13' E 001°44'0 0.0
2018-Jul-15 00:30N 41°13' E 001°44'0 0.0
2018-Jul-15 00:00N 41°13' E 001°44'0 0.0
2018-Jul-14 23:30N 41°13' E 001°44'0 0.0
2018-Jul-14 23:00N 41°13' E 001°44'0 0.0
2018-Jul-14 22:30N 41°13' E 001°44'0 0.0
2018-Jul-14 22:00N 41°13' E 001°44'0 0.0
2018-Jul-14 21:30N 41°13' E 001°44'0 0.0
2018-Jul-14 21:00N 41°13' E 001°44'0 0.0
2018-Jul-14 20:30N 41°13' E 001°44'0 0.0
2018-Jul-14 20:00N 41°13' E 001°44'0 0.0
2018-Jul-14 19:30N 41°13' E 001°44'0 0.0
2018-Jul-14 19:00N 41°13' E 001°44'0 0.0
2018-Jul-14 18:30N 41°13' E 001°44'0 0.0
2018-Jul-14 18:00N 41°13' E 001°44'0 0.0
2018-Jul-14 17:30N 41°13' E 001°44'0 0.0
2018-Jul-14 17:00N 41°13' E 001°44'0 0.0
2018-Jul-14 16:30N 41°13' E 001°44'0 0.0
2018-Jul-14 16:00N 41°13' E 001°44'0 0.0
2018-Jul-14 15:30N 41°13' E 001°44'0 0.0
2018-Jul-14 15:00N 41°13' E 001°44'0 0.0
2018-Jul-14 14:30N 41°13' E 001°44'0 0.0
2018-Jul-14 13:30N 41°13' E 001°44'0 0.0
2018-Jul-14 13:00N 41°13' E 001°44'0 0.0
2018-Jul-14 12:30N 41°13' E 001°44'0 0.0
2018-Jul-14 12:00N 41°13' E 001°44'0 0.0
2018-Jul-14 11:30N 41°13' E 001°44'0 0.0
2018-Jul-14 11:00N 41°13' E 001°44'0 0.0
2018-Jul-14 10:29N 41°13' E 001°44'0 0.0
2018-Jul-14 10:00N 41°13' E 001°44'0 0.0
2018-Jul-14 09:30N 41°13' E 001°44'0 0.0
2018-Jul-14 09:00N 41°13' E 001°44'0 0.0
2018-Jul-14 08:30N 41°13' E 001°44'0 0.0
2018-Jul-14 08:00N 41°13' E 001°44'0 0.0
2018-Jul-14 07:30N 41°13' E 001°44'0 0.0
2018-Jul-14 07:00N 41°13' E 001°44'0 0.0
2018-Jul-14 06:30N 41°13' E 001°44'0 0.0
2018-Jul-14 06:00N 41°13' E 001°44'0 0.0
2018-Jul-14 05:30N 41°13' E 001°44'0 0.0
2018-Jul-14 05:00N 41°13' E 001°44'0 0.0
2018-Jul-14 04:30N 41°13' E 001°44'0 0.0
2018-Jul-14 04:00N 41°13' E 001°44'0 0.0
2018-Jul-14 03:30N 41°13' E 001°44'0 0.0
2018-Jul-14 03:00N 41°13' E 001°44'0 0.0
2018-Jul-14 02:30N 41°13' E 001°44'0 0.0
2018-Jul-14 02:00N 41°13' E 001°44'0 0.0
2018-Jul-14 01:30N 41°13' E 001°44'0 0.0
2018-Jul-14 00:59N 41°13' E 001°44'0 0.0
2018-Jul-14 00:30N 41°13' E 001°44'0 0.0
2018-Jul-14 00:00N 41°13' E 001°44'0 0.0
2018-Jul-13 23:30N 41°13' E 001°44'0 0.0
2018-Jul-13 23:00N 41°13' E 001°44'0 0.0
2018-Jul-13 22:30N 41°13' E 001°44'0 0.0
2018-Jul-13 22:00N 41°13' E 001°44'0 0.0
2018-Jul-13 21:30N 41°13' E 001°44'0 0.0
2018-Jul-13 21:00N 41°13' E 001°44'0 0.0
2018-Jul-13 20:30N 41°13' E 001°44'0 0.0
2018-Jul-13 19:59N 41°13' E 001°44'0 0.0
2018-Jul-13 19:30N 41°13' E 001°44'0 0.0
2018-Jul-13 19:00N 41°13' E 001°44'0 0.0
2018-Jul-13 18:27N 41°13' E 001°44'0 0.0
2018-Jul-13 18:00N 41°13' E 001°44'0 0.0
2018-Jul-13 17:30N 41°13' E 001°44'0 0.0
2018-Jul-13 17:00N 41°13' E 001°44'0 0.0
2018-Jul-13 16:30N 41°13' E 001°44'0 0.0
2018-Jul-13 15:59N 41°13' E 001°44'0 0.0
2018-Jul-13 15:30N 41°13' E 001°44'0 0.0
2018-Jul-13 15:00N 41°13' E 001°44'0 0.0
2018-Jul-13 14:00N 41°13' E 001°44'0 0.0
2018-Jul-13 13:30N 41°13' E 001°44'0 0.0
2018-Jul-13 13:00N 41°13' E 001°44'0 0.0
2018-Jul-13 12:30N 41°13' E 001°44'0 0.0
2018-Jul-13 12:00N 41°13' E 001°44'0 0.0
2018-Jul-13 11:30N 41°13' E 001°44'0 0.0
2018-Jul-13 11:00N 41°13' E 001°44'0 0.0
2018-Jul-13 10:30N 41°13' E 001°44'0 0.0
2018-Jul-13 10:00N 41°13' E 001°44'0 0.0
2018-Jul-13 09:30N 41°13' E 001°44'0 0.0
2018-Jul-13 09:00N 41°13' E 001°44'0 0.0
2018-Jul-13 08:30N 41°13' E 001°44'0 0.0
2018-Jul-13 08:00N 41°13' E 001°44'0 0.0
2018-Jul-13 07:30N 41°13' E 001°44'0 0.0
2018-Jul-13 07:00N 41°13' E 001°44'0 0.0
2018-Jul-13 06:30N 41°13' E 001°44'0 0.0
2018-Jul-13 06:00N 41°13' E 001°44'0 0.2
2018-Jul-13 05:30N 41°13' E 001°44'3 6.2
2018-Jul-13 05:00N 41°10' E 001°45'611.0
2018-Jul-13 04:30N 41°06' E 001°50'0 0.3
2018-Jul-13 04:00N 41°06' E 001°50'0 0.5
2018-Jul-13 03:28N 41°06' E 001°50'0 0.6
2018-Jul-13 03:00N 41°06' E 001°49'0 0.3
2018-Jul-13 02:30N 41°06' E 001°49'0 0.5
2018-Jul-13 01:59N 41°06' E 001°49'0 0.0
2018-Jul-12 23:52N 41°06' E 001°49'0 0.2
2018-Jul-12 23:17N 41°06' E 001°49'0 0.3
2018-Jul-12 22:59N 41°06' E 001°49'4 7.8
2018-Jul-12 22:30N 41°09' E 001°46'4 8.0
2018-Jul-12 22:00N 41°13' E 001°44'0 0.0
2018-Jul-12 21:30N 41°13' E 001°44'0 0.0
2018-Jul-12 21:00N 41°13' E 001°44'0 0.0
2018-Jul-12 20:30N 41°13' E 001°44'0 0.0
2018-Jul-12 20:00N 41°13' E 001°44'0 0.0
2018-Jul-12 19:30N 41°13' E 001°44'0 0.0
2018-Jul-12 19:00N 41°13' E 001°44'0 0.0
2018-Jul-12 18:30N 41°13' E 001°44'0 0.0
2018-Jul-12 18:00N 41°13' E 001°44'0 0.0
2018-Jul-12 17:30N 41°13' E 001°44'0 0.0
2018-Jul-12 16:59N 41°13' E 001°44'0 0.0
2018-Jul-12 16:30N 41°13' E 001°44'0 0.0
2018-Jul-12 16:00N 41°13' E 001°44'0 0.0
2018-Jul-12 15:30N 41°13' E 001°44'0 0.0
2018-Jul-12 15:00N 41°13' E 001°44'0 0.0
2018-Jul-12 14:30N 41°13' E 001°44'0 0.0
2018-Jul-12 14:00N 41°13' E 001°44'0 0.0
2018-Jul-12 13:30N 41°13' E 001°44'0 0.0
2018-Jul-12 13:00N 41°13' E 001°44'0 0.0
2018-Jul-12 12:30N 41°13' E 001°44'0 0.0
2018-Jul-12 12:00N 41°13' E 001°44'0 0.0
2018-Jul-12 11:28N 41°13' E 001°44'0 0.0
2018-Jul-12 11:00N 41°13' E 001°44'0 0.0
2018-Jul-12 10:30N 41°13' E 001°44'0 0.0
2018-Jul-12 10:00N 41°13' E 001°44'0 0.0
2018-Jul-12 09:30N 41°13' E 001°44'0 0.0
2018-Jul-12 09:00N 41°13' E 001°44'0 0.0
2018-Jul-12 08:30N 41°13' E 001°44'0 0.0
2018-Jul-12 08:00N 41°13' E 001°44'0 0.0
2018-Jul-12 07:30N 41°13' E 001°44'0 0.0
2018-Jul-12 07:00N 41°13' E 001°44'0 0.0
2018-Jul-12 06:30N 41°13' E 001°44'0 0.0
2018-Jul-12 06:00N 41°13' E 001°44'0 0.0
2018-Jul-12 05:30N 41°13' E 001°44'0 0.2
2018-Jul-12 05:00N 41°13' E 001°44'2 4.4
2018-Jul-12 04:30N 41°12' E 001°46'5 9.6
2018-Jul-12 04:00N 41°09' E 001°52'3 6.1
2018-Jul-12 03:29N 41°08' E 001°56'0 0.4
2018-Jul-12 02:49N 41°08' E 001°55'0 0.6
2018-Jul-12 02:30N 41°07' E 001°55'0 0.1
2018-Jul-12 01:38N 41°07' E 001°55'0 0.4
2018-Jul-12 01:24N 41°07' E 001°55'1 2.3
2018-Jul-12 00:50N 41°08' E 001°56'0 0.5
2018-Jul-12 00:30N 41°08' E 001°56'4 3.2
2018-Jul-11 23:13N 41°08' E 001°51'2 9.4
2018-Jul-11 23:00N 41°09' E 001°49'5 9.6
2018-Jul-11 22:30N 41°12' E 001°44'1 1.5
2018-Jul-11 22:00N 41°13' E 001°44'0 0.0
2018-Jul-11 21:30N 41°13' E 001°44'0 0.0
2018-Jul-11 21:00N 41°13' E 001°44'0 0.0
2018-Jul-11 20:30N 41°13' E 001°44'0 0.0
2018-Jul-11 20:00N 41°13' E 001°44'0 0.0
2018-Jul-11 19:30N 41°13' E 001°44'0 0.0
2018-Jul-11 19:00N 41°13' E 001°44'0 0.0
2018-Jul-11 18:30N 41°13' E 001°44'0 0.0
2018-Jul-11 18:00N 41°13' E 001°44'0 0.0
2018-Jul-11 17:30N 41°13' E 001°44'0 0.0
2018-Jul-11 16:59N 41°13' E 001°44'0 0.0
2018-Jul-11 16:30N 41°13' E 001°44'0 0.0
2018-Jul-11 16:00N 41°13' E 001°44'0 0.0
2018-Jul-11 15:30N 41°13' E 001°44'0 0.0
2018-Jul-11 15:00N 41°13' E 001°44'0 0.0
2018-Jul-11 14:30N 41°13' E 001°44'0 0.0
2018-Jul-11 14:00N 41°13' E 001°44'0 0.0
2018-Jul-11 13:30N 41°13' E 001°44'0 0.0
2018-Jul-11 13:00N 41°13' E 001°44'0 0.0
2018-Jul-11 12:30N 41°13' E 001°44'0 0.0
2018-Jul-11 12:00N 41°13' E 001°44'0 0.0
2018-Jul-11 11:30N 41°13' E 001°44'0 0.0
2018-Jul-11 11:00N 41°13' E 001°44'0 0.0
2018-Jul-11 10:30N 41°13' E 001°44'0 0.0
2018-Jul-11 10:00N 41°13' E 001°44'0 0.0
2018-Jul-11 09:30N 41°13' E 001°44'0 0.0
2018-Jul-11 09:00N 41°13' E 001°44'0 0.0
2018-Jul-11 08:30N 41°13' E 001°44'0 0.0
2018-Jul-11 08:00N 41°13' E 001°44'0 0.0
2018-Jul-11 07:30N 41°13' E 001°44'0 0.0
2018-Jul-11 07:00N 41°13' E 001°44'0 0.0
2018-Jul-11 06:30N 41°13' E 001°44'0 0.2
2018-Jul-11 06:00N 41°13' E 001°44'0 0.1
2018-Jul-11 05:30N 41°13' E 001°44'2 3.9
2018-Jul-11 05:00N 41°12' E 001°46'611.2
2018-Jul-11 04:30N 41°12' E 001°54'4 5.2
2018-Jul-11 03:48N 41°11' E 001°59'0 0.6
2018-Jul-11 03:29N 41°11' E 001°58'0 0.2
2018-Jul-11 02:52N 41°11' E 001°59'0 0.6
2018-Jul-11 02:22N 41°11' E 001°58'0 0.6
2018-Jul-11 02:00N 41°10' E 001°58'0 0.4
2018-Jul-11 01:28N 41°11' E 001°58'0 0.4
2018-Jul-11 00:57N 41°10' E 001°58'1 1.7
2018-Jul-11 00:30N 41°11' E 001°57'4 7.3
2018-Jul-10 23:56N 41°10' E 001°52'510.9
2018-Jul-10 23:30N 41°11' E 001°46'2 4.6
2018-Jul-10 23:00N 41°13' E 001°44'0 0.0
2018-Jul-10 22:30N 41°13' E 001°44'0 0.0
2018-Jul-10 22:00N 41°13' E 001°44'0 0.0
2018-Jul-10 21:30N 41°13' E 001°44'0 0.0
2018-Jul-10 21:00N 41°13' E 001°44'0 0.0
2018-Jul-10 20:30N 41°13' E 001°44'0 0.0
2018-Jul-10 20:00N 41°13' E 001°44'0 0.0
2018-Jul-10 19:30N 41°13' E 001°44'0 0.0
2018-Jul-10 18:58N 41°13' E 001°44'0 0.0
2018-Jul-10 18:30N 41°13' E 001°44'0 0.0
2018-Jul-10 18:00N 41°13' E 001°44'0 0.0
2018-Jul-10 17:30N 41°13' E 001°44'0 0.0
2018-Jul-10 17:00N 41°13' E 001°44'0 0.0
2018-Jul-10 16:30N 41°13' E 001°44'0 0.0
2018-Jul-10 16:00N 41°13' E 001°44'0 0.0
2018-Jul-10 15:30N 41°13' E 001°44'0 0.0
2018-Jul-10 15:00N 41°13' E 001°44'0 0.0
2018-Jul-10 14:30N 41°13' E 001°44'0 0.0
2018-Jul-10 14:00N 41°13' E 001°44'0 0.0
2018-Jul-10 13:30N 41°13' E 001°44'0 0.0
2018-Jul-10 13:00N 41°13' E 001°44'0 0.0
2018-Jul-10 12:28N 41°13' E 001°44'0 0.0
2018-Jul-10 12:00N 41°13' E 001°44'0 0.0
2018-Jul-10 11:30N 41°13' E 001°44'0 0.0
2018-Jul-10 11:00N 41°13' E 001°44'0 0.0
2018-Jul-10 10:30N 41°13' E 001°44'0 0.0
2018-Jul-10 10:00N 41°13' E 001°44'0 0.0
2018-Jul-10 09:30N 41°13' E 001°44'0 0.0
2018-Jul-10 09:00N 41°13' E 001°44'0 0.0
2018-Jul-10 08:30N 41°13' E 001°44'0 0.0
2018-Jul-10 08:00N 41°13' E 001°44'0 0.0
2018-Jul-10 07:30N 41°13' E 001°44'0 0.0
2018-Jul-10 07:00N 41°13' E 001°44'0 0.0
2018-Jul-10 06:30N 41°13' E 001°44'0 0.0
2018-Jul-10 06:00N 41°13' E 001°44'0 0.0
2018-Jul-10 05:30N 41°13' E 001°44'0 0.0
2018-Jul-10 05:00N 41°13' E 001°44'1 2.0
2018-Jul-10 04:30N 41°12' E 001°44'612.8
2018-Jul-10 04:00N 41°08' E 001°51'1 0.7
2018-Jul-10 03:16N 41°08' E 001°52'0 0.4
2018-Jul-10 02:56N 41°08' E 001°52'0 0.3
2018-Jul-10 02:08N 41°07' E 001°52'0 0.5
2018-Jul-10 02:00N 41°07' E 001°52'0 0.1
2018-Jul-10 01:25N 41°07' E 001°52'1 2.9
2018-Jul-10 00:58N 41°06' E 001°51'3 7.5
2018-Jul-10 00:30N 41°08' E 001°47'5 9.6
2018-Jul-10 00:00N 41°13' E 001°44'0 0.0
2018-Jul-09 06:51N 41°13' E 001°44'0 0.0
2018-Jul-09 06:30N 41°13' E 001°44'0 0.0
2018-Jul-09 06:00N 41°13' E 001°44'0 0.1
2018-Jul-09 05:30N 41°13' E 001°44'0 0.1
2018-Jul-09 05:00N 41°13' E 001°44'0 0.1
2018-Jul-09 04:30N 41°13' E 001°44'0 0.1
2018-Jul-09 04:00N 41°13' E 001°44'4 8.8
2018-Jul-09 03:30N 41°09' E 001°47'4 5.9
2018-Jul-09 02:55N 41°06' E 001°49'0 0.3
2018-Jul-09 02:30N 41°06' E 001°49'0 0.1
2018-Jul-09 01:46N 41°06' E 001°49'0 0.3
2018-Jul-09 01:13N 41°06' E 001°50'0 0.2
2018-Jul-09 00:56N 41°06' E 001°49'0 0.2
2018-Jul-09 00:21N 41°06' E 001°49'0 0.1
2018-Jul-08 23:09N 41°06' E 001°50'0 0.1
2018-Jul-08 22:33N 41°06' E 001°50'0 0.7
2018-Jul-08 22:19N 41°06' E 001°49'3 7.3
2018-Jul-08 21:57N 41°07' E 001°47'511.2
2018-Jul-08 21:30N 41°12' E 001°44'  

Dump ship's entire track history